sensor_id;sensor_type;location;lat;lon;timestamp;P1;durP1;ratioP1;P2;durP2;ratioP2
59338;SDS011;45117;50.960;5.500;2022-10-31T00:01:00;29.58;;;13.73;;
59338;SDS011;45117;50.960;5.500;2022-10-31T00:03:27;35.17;;;15.68;;
59338;SDS011;45117;50.960;5.500;2022-10-31T00:05:53;31.30;;;16.70;;
59338;SDS011;45117;50.960;5.500;2022-10-31T00:08:21;34.67;;;16.88;;
59338;SDS011;45117;50.960;5.500;2022-10-31T00:10:48;32.65;;;16.23;;
59338;SDS011;45117;50.960;5.500;2022-10-31T00:13:14;26.58;;;14.70;;
59338;SDS011;45117;50.960;5.500;2022-10-31T00:15:41;34.55;;;17.65;;
59338;SDS011;45117;50.960;5.500;2022-10-31T00:18:08;32.20;;;15.50;;
59338;SDS011;45117;50.960;5.500;2022-10-31T00:20:36;30.50;;;15.48;;
59338;SDS011;45117;50.960;5.500;2022-10-31T00:23:03;34.85;;;17.75;;
59338;SDS011;45117;50.960;5.500;2022-10-31T00:25:34;39.22;;;17.48;;
59338;SDS011;45117;50.960;5.500;2022-10-31T00:28:01;35.67;;;17.13;;
59338;SDS011;45117;50.960;5.500;2022-10-31T00:30:28;30.10;;;17.63;;
59338;SDS011;45117;50.960;5.500;2022-10-31T00:32:55;31.60;;;15.23;;
59338;SDS011;45117;50.960;5.500;2022-10-31T00:35:21;32.55;;;17.98;;
59338;SDS011;45117;50.960;5.500;2022-10-31T00:37:48;38.38;;;18.30;;
59338;SDS011;45117;50.960;5.500;2022-10-31T00:40:14;35.75;;;17.80;;
59338;SDS011;45117;50.960;5.500;2022-10-31T00:42:42;36.80;;;18.75;;
59338;SDS011;45117;50.960;5.500;2022-10-31T00:45:09;34.53;;;17.42;;
59338;SDS011;45117;50.960;5.500;2022-10-31T00:47:36;35.20;;;19.40;;
59338;SDS011;45117;50.960;5.500;2022-10-31T00:50:03;42.58;;;21.17;;
59338;SDS011;45117;50.960;5.500;2022-10-31T00:52:30;40.08;;;19.88;;
59338;SDS011;45117;50.960;5.500;2022-10-31T00:54:56;37.28;;;20.20;;
59338;SDS011;45117;50.960;5.500;2022-10-31T00:57:22;40.45;;;20.33;;
59338;SDS011;45117;50.960;5.500;2022-10-31T00:59:50;38.78;;;21.33;;
59338;SDS011;45117;50.960;5.500;2022-10-31T01:02:17;43.15;;;20.77;;
59338;SDS011;45117;50.960;5.500;2022-10-31T01:04:43;37.25;;;20.35;;
59338;SDS011;45117;50.960;5.500;2022-10-31T01:07:10;45.08;;;21.00;;
59338;SDS011;45117;50.960;5.500;2022-10-31T01:09:37;42.63;;;21.85;;
59338;SDS011;45117;50.960;5.500;2022-10-31T01:12:03;42.17;;;21.15;;
59338;SDS011;45117;50.960;5.500;2022-10-31T01:14:30;40.47;;;20.30;;
59338;SDS011;45117;50.960;5.500;2022-10-31T01:16:58;43.00;;;20.98;;
59338;SDS011;45117;50.960;5.500;2022-10-31T01:19:24;39.28;;;20.40;;
59338;SDS011;45117;50.960;5.500;2022-10-31T01:21:53;42.13;;;20.98;;
59338;SDS011;45117;50.960;5.500;2022-10-31T01:24:20;41.53;;;21.02;;
59338;SDS011;45117;50.960;5.500;2022-10-31T01:26:46;44.45;;;20.67;;
59338;SDS011;45117;50.960;5.500;2022-10-31T01:29:13;42.63;;;20.45;;
59338;SDS011;45117;50.960;5.500;2022-10-31T01:31:39;36.10;;;18.95;;
59338;SDS011;45117;50.960;5.500;2022-10-31T01:34:08;33.47;;;16.83;;
59338;SDS011;45117;50.960;5.500;2022-10-31T01:36:39;41.45;;;20.60;;
59338;SDS011;45117;50.960;5.500;2022-10-31T01:39:06;40.75;;;20.92;;
59338;SDS011;45117;50.960;5.500;2022-10-31T01:41:34;35.13;;;18.02;;
59338;SDS011;45117;50.960;5.500;2022-10-31T01:44:03;43.03;;;21.33;;
59338;SDS011;45117;50.960;5.500;2022-10-31T01:47:10;43.95;;;20.83;;
59338;SDS011;45117;50.960;5.500;2022-10-31T01:49:43;43.15;;;20.48;;
59338;SDS011;45117;50.960;5.500;2022-10-31T01:52:14;40.83;;;21.02;;
59338;SDS011;45117;50.960;5.500;2022-10-31T01:54:45;38.17;;;20.58;;
59338;SDS011;45117;50.960;5.500;2022-10-31T01:57:16;35.60;;;19.00;;
59338;SDS011;45117;50.960;5.500;2022-10-31T01:59:45;36.15;;;18.85;;
59338;SDS011;45117;50.960;5.500;2022-10-31T02:02:14;40.28;;;19.90;;
59338;SDS011;45117;50.960;5.500;2022-10-31T02:04:43;36.42;;;19.23;;
59338;SDS011;45117;50.960;5.500;2022-10-31T02:07:12;37.35;;;18.60;;
59338;SDS011;45117;50.960;5.500;2022-10-31T02:09:41;43.28;;;19.10;;
59338;SDS011;45117;50.960;5.500;2022-10-31T02:12:09;38.40;;;18.10;;
59338;SDS011;45117;50.960;5.500;2022-10-31T02:14:36;38.85;;;17.95;;
59338;SDS011;45117;50.960;5.500;2022-10-31T02:17:04;35.60;;;18.45;;
59338;SDS011;45117;50.960;5.500;2022-10-31T02:19:31;36.67;;;17.90;;
59338;SDS011;45117;50.960;5.500;2022-10-31T02:22:09;35.50;;;18.08;;
59338;SDS011;45117;50.960;5.500;2022-10-31T02:24:46;38.88;;;19.48;;
59338;SDS011;45117;50.960;5.500;2022-10-31T02:27:43;33.20;;;17.75;;
59338;SDS011;45117;50.960;5.500;2022-10-31T02:30:21;35.90;;;18.52;;
59338;SDS011;45117;50.960;5.500;2022-10-31T02:32:55;39.03;;;19.17;;
59338;SDS011;45117;50.960;5.500;2022-10-31T02:35:40;39.58;;;18.63;;
59338;SDS011;45117;50.960;5.500;2022-10-31T02:38:23;34.35;;;18.42;;
59338;SDS011;45117;50.960;5.500;2022-10-31T02:40:59;40.72;;;18.88;;
59338;SDS011;45117;50.960;5.500;2022-10-31T02:43:32;43.55;;;19.15;;
59338;SDS011;45117;50.960;5.500;2022-10-31T02:46:07;38.42;;;18.85;;
59338;SDS011;45117;50.960;5.500;2022-10-31T02:48:40;33.30;;;17.25;;
59338;SDS011;45117;50.960;5.500;2022-10-31T02:51:09;33.10;;;16.73;;
59338;SDS011;45117;50.960;5.500;2022-10-31T02:53:38;40.47;;;18.35;;
59338;SDS011;45117;50.960;5.500;2022-10-31T02:56:05;36.97;;;17.73;;
59338;SDS011;45117;50.960;5.500;2022-10-31T02:58:36;37.13;;;17.50;;
59338;SDS011;45117;50.960;5.500;2022-10-31T03:01:16;31.65;;;15.35;;
59338;SDS011;45117;50.960;5.500;2022-10-31T03:03:54;37.70;;;18.02;;
59338;SDS011;45117;50.960;5.500;2022-10-31T03:06:32;35.55;;;16.95;;
59338;SDS011;45117;50.960;5.500;2022-10-31T03:09:02;35.17;;;16.95;;
59338;SDS011;45117;50.960;5.500;2022-10-31T03:11:37;32.88;;;16.85;;
59338;SDS011;45117;50.960;5.500;2022-10-31T03:14:10;36.10;;;18.00;;
59338;SDS011;45117;50.960;5.500;2022-10-31T03:16:42;39.20;;;18.13;;
59338;SDS011;45117;50.960;5.500;2022-10-31T03:19:14;35.67;;;17.08;;
59338;SDS011;45117;50.960;5.500;2022-10-31T03:21:47;33.45;;;17.60;;
59338;SDS011;45117;50.960;5.500;2022-10-31T03:24:18;37.88;;;18.73;;
59338;SDS011;45117;50.960;5.500;2022-10-31T03:26:47;37.70;;;17.42;;
59338;SDS011;45117;50.960;5.500;2022-10-31T03:29:19;37.78;;;17.73;;
59338;SDS011;45117;50.960;5.500;2022-10-31T03:31:49;35.22;;;19.00;;
59338;SDS011;45117;50.960;5.500;2022-10-31T03:34:19;32.88;;;16.65;;
59338;SDS011;45117;50.960;5.500;2022-10-31T03:36:47;31.52;;;17.08;;
59338;SDS011;45117;50.960;5.500;2022-10-31T03:39:17;31.40;;;15.52;;
59338;SDS011;45117;50.960;5.500;2022-10-31T03:41:46;36.90;;;18.50;;
59338;SDS011;45117;50.960;5.500;2022-10-31T03:44:20;37.95;;;16.45;;
59338;SDS011;45117;50.960;5.500;2022-10-31T03:46:48;30.35;;;16.42;;
59338;SDS011;45117;50.960;5.500;2022-10-31T03:49:15;31.52;;;16.20;;
59338;SDS011;45117;50.960;5.500;2022-10-31T03:51:44;35.15;;;16.95;;
59338;SDS011;45117;50.960;5.500;2022-10-31T03:54:22;29.98;;;15.00;;
59338;SDS011;45117;50.960;5.500;2022-10-31T03:56:53;34.40;;;16.80;;
59338;SDS011;45117;50.960;5.500;2022-10-31T03:59:23;34.00;;;15.98;;
59338;SDS011;45117;50.960;5.500;2022-10-31T04:01:53;33.92;;;16.75;;
59338;SDS011;45117;50.960;5.500;2022-10-31T04:04:22;37.72;;;17.00;;
59338;SDS011;45117;50.960;5.500;2022-10-31T04:06:52;35.97;;;17.23;;
59338;SDS011;45117;50.960;5.500;2022-10-31T04:09:21;34.65;;;17.00;;
59338;SDS011;45117;50.960;5.500;2022-10-31T04:11:50;38.55;;;17.50;;
59338;SDS011;45117;50.960;5.500;2022-10-31T04:14:19;32.92;;;16.98;;
59338;SDS011;45117;50.960;5.500;2022-10-31T04:16:48;32.85;;;15.73;;
59338;SDS011;45117;50.960;5.500;2022-10-31T04:19:14;31.92;;;17.13;;
59338;SDS011;45117;50.960;5.500;2022-10-31T04:21:41;38.97;;;17.50;;
59338;SDS011;45117;50.960;5.500;2022-10-31T04:24:09;35.78;;;17.48;;
59338;SDS011;45117;50.960;5.500;2022-10-31T04:26:36;35.50;;;15.93;;
59338;SDS011;45117;50.960;5.500;2022-10-31T04:29:03;32.63;;;17.10;;
59338;SDS011;45117;50.960;5.500;2022-10-31T04:31:29;35.00;;;16.90;;
59338;SDS011;45117;50.960;5.500;2022-10-31T04:33:56;36.97;;;16.33;;
59338;SDS011;45117;50.960;5.500;2022-10-31T04:36:23;37.15;;;17.08;;
59338;SDS011;45117;50.960;5.500;2022-10-31T04:38:49;38.50;;;16.83;;
59338;SDS011;45117;50.960;5.500;2022-10-31T04:41:17;34.72;;;16.77;;
59338;SDS011;45117;50.960;5.500;2022-10-31T04:43:43;35.15;;;16.60;;
59338;SDS011;45117;50.960;5.500;2022-10-31T04:46:10;34.47;;;15.65;;
59338;SDS011;45117;50.960;5.500;2022-10-31T04:48:36;32.25;;;15.45;;
59338;SDS011;45117;50.960;5.500;2022-10-31T04:51:03;30.95;;;14.40;;
59338;SDS011;45117;50.960;5.500;2022-10-31T04:53:29;41.22;;;16.77;;
59338;SDS011;45117;50.960;5.500;2022-10-31T04:55:57;35.55;;;16.70;;
59338;SDS011;45117;50.960;5.500;2022-10-31T04:58:26;31.10;;;15.98;;
59338;SDS011;45117;50.960;5.500;2022-10-31T05:00:52;33.97;;;15.45;;
59338;SDS011;45117;50.960;5.500;2022-10-31T05:03:19;35.97;;;15.70;;
59338;SDS011;45117;50.960;5.500;2022-10-31T05:05:46;32.47;;;15.52;;
59338;SDS011;45117;50.960;5.500;2022-10-31T05:08:13;28.60;;;15.27;;
59338;SDS011;45117;50.960;5.500;2022-10-31T05:10:39;33.97;;;15.15;;
59338;SDS011;45117;50.960;5.500;2022-10-31T05:13:06;33.22;;;15.88;;
59338;SDS011;45117;50.960;5.500;2022-10-31T05:15:34;35.45;;;15.82;;
59338;SDS011;45117;50.960;5.500;2022-10-31T05:18:01;31.25;;;15.02;;
59338;SDS011;45117;50.960;5.500;2022-10-31T05:20:28;31.95;;;15.32;;
59338;SDS011;45117;50.960;5.500;2022-10-31T05:22:56;32.10;;;16.52;;
59338;SDS011;45117;50.960;5.500;2022-10-31T05:25:24;30.40;;;14.77;;
59338;SDS011;45117;50.960;5.500;2022-10-31T05:27:52;29.05;;;14.07;;
59338;SDS011;45117;50.960;5.500;2022-10-31T05:30:21;30.50;;;14.20;;
59338;SDS011;45117;50.960;5.500;2022-10-31T05:32:50;35.10;;;15.45;;
59338;SDS011;45117;50.960;5.500;2022-10-31T05:35:18;32.53;;;16.23;;
59338;SDS011;45117;50.960;5.500;2022-10-31T05:37:45;32.10;;;15.15;;
59338;SDS011;45117;50.960;5.500;2022-10-31T05:40:12;33.47;;;16.25;;
59338;SDS011;45117;50.960;5.500;2022-10-31T05:42:40;33.03;;;15.18;;
59338;SDS011;45117;50.960;5.500;2022-10-31T05:45:07;29.33;;;14.50;;
59338;SDS011;45117;50.960;5.500;2022-10-31T05:47:34;34.42;;;14.95;;
59338;SDS011;45117;50.960;5.500;2022-10-31T05:50:02;31.50;;;14.95;;
59338;SDS011;45117;50.960;5.500;2022-10-31T05:52:29;31.05;;;14.60;;
59338;SDS011;45117;50.960;5.500;2022-10-31T05:54:55;33.03;;;14.82;;
59338;SDS011;45117;50.960;5.500;2022-10-31T05:57:22;33.88;;;15.20;;
59338;SDS011;45117;50.960;5.500;2022-10-31T05:59:48;29.77;;;14.90;;
59338;SDS011;45117;50.960;5.500;2022-10-31T06:02:17;32.88;;;14.68;;
59338;SDS011;45117;50.960;5.500;2022-10-31T06:04:44;31.65;;;14.85;;
59338;SDS011;45117;50.960;5.500;2022-10-31T06:07:12;30.42;;;14.13;;
59338;SDS011;45117;50.960;5.500;2022-10-31T06:09:38;33.70;;;14.07;;
59338;SDS011;45117;50.960;5.500;2022-10-31T06:12:05;29.08;;;14.02;;
59338;SDS011;45117;50.960;5.500;2022-10-31T06:14:31;28.05;;;13.40;;
59338;SDS011;45117;50.960;5.500;2022-10-31T06:16:58;27.63;;;13.73;;
59338;SDS011;45117;50.960;5.500;2022-10-31T06:19:24;27.95;;;13.68;;
59338;SDS011;45117;50.960;5.500;2022-10-31T06:21:51;27.92;;;13.30;;
59338;SDS011;45117;50.960;5.500;2022-10-31T06:24:19;30.90;;;13.02;;
59338;SDS011;45117;50.960;5.500;2022-10-31T06:26:45;28.23;;;13.30;;
59338;SDS011;45117;50.960;5.500;2022-10-31T06:29:12;27.02;;;12.73;;
59338;SDS011;45117;50.960;5.500;2022-10-31T06:31:38;23.58;;;12.32;;
59338;SDS011;45117;50.960;5.500;2022-10-31T06:34:04;28.58;;;14.55;;
59338;SDS011;45117;50.960;5.500;2022-10-31T06:36:31;25.98;;;13.18;;
59338;SDS011;45117;50.960;5.500;2022-10-31T06:38:57;26.70;;;13.57;;
59338;SDS011;45117;50.960;5.500;2022-10-31T06:41:25;29.52;;;14.27;;
59338;SDS011;45117;50.960;5.500;2022-10-31T06:43:52;31.48;;;14.27;;
59338;SDS011;45117;50.960;5.500;2022-10-31T06:46:18;26.20;;;13.25;;
59338;SDS011;45117;50.960;5.500;2022-10-31T06:48:45;26.90;;;13.27;;
59338;SDS011;45117;50.960;5.500;2022-10-31T06:51:11;29.60;;;14.68;;
59338;SDS011;45117;50.960;5.500;2022-10-31T06:53:38;31.50;;;14.10;;
59338;SDS011;45117;50.960;5.500;2022-10-31T06:56:04;33.97;;;15.35;;
59338;SDS011;45117;50.960;5.500;2022-10-31T06:58:33;33.03;;;15.48;;
59338;SDS011;45117;50.960;5.500;2022-10-31T07:00:59;32.42;;;14.70;;
59338;SDS011;45117;50.960;5.500;2022-10-31T07:03:26;32.22;;;14.80;;
59338;SDS011;45117;50.960;5.500;2022-10-31T07:05:54;29.83;;;14.88;;
59338;SDS011;45117;50.960;5.500;2022-10-31T07:08:21;36.42;;;15.65;;
59338;SDS011;45117;50.960;5.500;2022-10-31T07:10:50;27.42;;;14.02;;
59338;SDS011;45117;50.960;5.500;2022-10-31T07:13:18;31.30;;;15.27;;
59338;SDS011;45117;50.960;5.500;2022-10-31T07:15:47;36.38;;;15.63;;
59338;SDS011;45117;50.960;5.500;2022-10-31T07:18:14;29.33;;;14.18;;
59338;SDS011;45117;50.960;5.500;2022-10-31T07:20:40;34.40;;;15.95;;
59338;SDS011;45117;50.960;5.500;2022-10-31T07:23:07;32.33;;;15.80;;
59338;SDS011;45117;50.960;5.500;2022-10-31T07:25:34;34.65;;;16.83;;
59338;SDS011;45117;50.960;5.500;2022-10-31T07:28:01;39.80;;;17.33;;
59338;SDS011;45117;50.960;5.500;2022-10-31T07:30:27;36.88;;;17.63;;
59338;SDS011;45117;50.960;5.500;2022-10-31T07:32:55;30.92;;;15.85;;
59338;SDS011;45117;50.960;5.500;2022-10-31T07:35:23;33.65;;;17.00;;
59338;SDS011;45117;50.960;5.500;2022-10-31T07:37:51;35.33;;;16.33;;
59338;SDS011;45117;50.960;5.500;2022-10-31T07:40:18;37.35;;;17.58;;
59338;SDS011;45117;50.960;5.500;2022-10-31T07:42:46;37.50;;;18.45;;
59338;SDS011;45117;50.960;5.500;2022-10-31T07:45:14;41.38;;;20.08;;
59338;SDS011;45117;50.960;5.500;2022-10-31T07:47:43;48.45;;;20.80;;
59338;SDS011;45117;50.960;5.500;2022-10-31T07:50:15;44.45;;;19.88;;
59338;SDS011;45117;50.960;5.500;2022-10-31T07:52:44;44.47;;;21.00;;
59338;SDS011;45117;50.960;5.500;2022-10-31T07:55:11;50.42;;;21.58;;
59338;SDS011;45117;50.960;5.500;2022-10-31T07:57:38;44.38;;;19.58;;
59338;SDS011;45117;50.960;5.500;2022-10-31T08:00:05;44.55;;;20.05;;
59338;SDS011;45117;50.960;5.500;2022-10-31T08:02:34;36.88;;;18.23;;
59338;SDS011;45117;50.960;5.500;2022-10-31T08:05:01;36.83;;;18.08;;
59338;SDS011;45117;50.960;5.500;2022-10-31T08:07:29;40.20;;;18.90;;
59338;SDS011;45117;50.960;5.500;2022-10-31T08:09:56;31.23;;;14.50;;
59338;SDS011;45117;50.960;5.500;2022-10-31T08:12:22;30.45;;;14.00;;
59338;SDS011;45117;50.960;5.500;2022-10-31T08:14:49;34.58;;;16.80;;
59338;SDS011;45117;50.960;5.500;2022-10-31T08:17:15;36.45;;;18.33;;
59338;SDS011;45117;50.960;5.500;2022-10-31T08:19:42;42.80;;;18.23;;
59338;SDS011;45117;50.960;5.500;2022-10-31T08:22:08;38.22;;;15.90;;
59338;SDS011;45117;50.960;5.500;2022-10-31T08:24:36;37.58;;;18.23;;
59338;SDS011;45117;50.960;5.500;2022-10-31T08:27:03;43.35;;;18.23;;
59338;SDS011;45117;50.960;5.500;2022-10-31T08:29:29;34.72;;;16.60;;
59338;SDS011;45117;50.960;5.500;2022-10-31T08:31:57;30.92;;;14.88;;
59338;SDS011;45117;50.960;5.500;2022-10-31T08:34:23;33.25;;;16.60;;
59338;SDS011;45117;50.960;5.500;2022-10-31T08:36:50;42.88;;;19.35;;
59338;SDS011;45117;50.960;5.500;2022-10-31T08:39:17;39.83;;;18.50;;
59338;SDS011;45117;50.960;5.500;2022-10-31T08:41:45;41.08;;;20.42;;
59338;SDS011;45117;50.960;5.500;2022-10-31T08:44:12;39.72;;;19.02;;
59338;SDS011;45117;50.960;5.500;2022-10-31T08:46:38;41.35;;;19.20;;
59338;SDS011;45117;50.960;5.500;2022-10-31T08:49:05;42.00;;;20.00;;
59338;SDS011;45117;50.960;5.500;2022-10-31T08:51:31;42.55;;;18.75;;
59338;SDS011;45117;50.960;5.500;2022-10-31T08:53:58;44.78;;;20.73;;
59338;SDS011;45117;50.960;5.500;2022-10-31T08:56:24;43.75;;;20.80;;
59338;SDS011;45117;50.960;5.500;2022-10-31T08:58:53;36.03;;;17.30;;
59338;SDS011;45117;50.960;5.500;2022-10-31T09:01:20;42.83;;;19.90;;
59338;SDS011;45117;50.960;5.500;2022-10-31T09:03:46;43.97;;;21.02;;
59338;SDS011;45117;50.960;5.500;2022-10-31T09:06:13;47.67;;;20.90;;
59338;SDS011;45117;50.960;5.500;2022-10-31T09:08:39;51.00;;;20.92;;
59338;SDS011;45117;50.960;5.500;2022-10-31T09:11:06;44.88;;;21.02;;
59338;SDS011;45117;50.960;5.500;2022-10-31T09:13:32;40.22;;;18.02;;
59338;SDS011;45117;50.960;5.500;2022-10-31T09:16:00;44.85;;;21.05;;
59338;SDS011;45117;50.960;5.500;2022-10-31T09:18:27;34.95;;;17.83;;
59338;SDS011;45117;50.960;5.500;2022-10-31T09:20:53;38.05;;;17.70;;
59338;SDS011;45117;50.960;5.500;2022-10-31T09:23:21;38.17;;;17.58;;
59338;SDS011;45117;50.960;5.500;2022-10-31T09:25:48;38.15;;;19.38;;
59338;SDS011;45117;50.960;5.500;2022-10-31T09:28:16;39.92;;;18.15;;
59338;SDS011;45117;50.960;5.500;2022-10-31T09:30:45;37.10;;;17.45;;
59338;SDS011;45117;50.960;5.500;2022-10-31T09:33:14;29.60;;;14.32;;
59338;SDS011;45117;50.960;5.500;2022-10-31T09:35:41;36.75;;;17.95;;
59338;SDS011;45117;50.960;5.500;2022-10-31T09:38:08;39.40;;;17.73;;
59338;SDS011;45117;50.960;5.500;2022-10-31T09:40:37;41.28;;;17.48;;
59338;SDS011;45117;50.960;5.500;2022-10-31T09:43:08;35.38;;;16.52;;
59338;SDS011;45117;50.960;5.500;2022-10-31T09:45:43;31.45;;;14.93;;
59338;SDS011;45117;50.960;5.500;2022-10-31T09:48:21;24.15;;;12.52;;
59338;SDS011;45117;50.960;5.500;2022-10-31T09:50:58;32.00;;;14.75;;
59338;SDS011;45117;50.960;5.500;2022-10-31T09:53:32;26.42;;;13.98;;
59338;SDS011;45117;50.960;5.500;2022-10-31T09:56:02;34.95;;;14.50;;
59338;SDS011;45117;50.960;5.500;2022-10-31T09:58:32;31.55;;;14.80;;
59338;SDS011;45117;50.960;5.500;2022-10-31T10:01:04;34.00;;;15.65;;
59338;SDS011;45117;50.960;5.500;2022-10-31T10:03:34;34.35;;;14.48;;
59338;SDS011;45117;50.960;5.500;2022-10-31T10:06:07;32.25;;;14.57;;
59338;SDS011;45117;50.960;5.500;2022-10-31T10:08:39;25.65;;;11.52;;
59338;SDS011;45117;50.960;5.500;2022-10-31T10:11:12;27.58;;;14.15;;
59338;SDS011;45117;50.960;5.500;2022-10-31T10:13:59;26.15;;;12.48;;
59338;SDS011;45117;50.960;5.500;2022-10-31T10:16:39;27.17;;;13.68;;
59338;SDS011;45117;50.960;5.500;2022-10-31T10:19:20;26.70;;;12.57;;
59338;SDS011;45117;50.960;5.500;2022-10-31T10:21:57;26.05;;;12.25;;
59338;SDS011;45117;50.960;5.500;2022-10-31T10:24:32;28.50;;;12.05;;
59338;SDS011;45117;50.960;5.500;2022-10-31T10:27:09;25.02;;;11.82;;
59338;SDS011;45117;50.960;5.500;2022-10-31T10:29:44;26.38;;;11.88;;
59338;SDS011;45117;50.960;5.500;2022-10-31T10:32:17;19.15;;;10.43;;
59338;SDS011;45117;50.960;5.500;2022-10-31T10:34:51;24.45;;;11.85;;
59338;SDS011;45117;50.960;5.500;2022-10-31T10:37:22;27.08;;;11.13;;
59338;SDS011;45117;50.960;5.500;2022-10-31T10:39:52;21.88;;;9.90;;
59338;SDS011;45117;50.960;5.500;2022-10-31T10:42:21;22.00;;;10.90;;
59338;SDS011;45117;50.960;5.500;2022-10-31T10:45:13;23.90;;;11.23;;
59338;SDS011;45117;50.960;5.500;2022-10-31T10:48:01;21.83;;;11.02;;
59338;SDS011;45117;50.960;5.500;2022-10-31T10:50:36;21.52;;;11.15;;
59338;SDS011;45117;50.960;5.500;2022-10-31T10:53:08;27.27;;;11.85;;
59338;SDS011;45117;50.960;5.500;2022-10-31T10:55:56;20.77;;;9.52;;
59338;SDS011;45117;50.960;5.500;2022-10-31T10:58:28;23.90;;;11.25;;
59338;SDS011;45117;50.960;5.500;2022-10-31T11:00:55;22.17;;;10.93;;
59338;SDS011;45117;50.960;5.500;2022-10-31T11:03:21;23.58;;;11.00;;
59338;SDS011;45117;50.960;5.500;2022-10-31T11:05:50;20.83;;;10.07;;
59338;SDS011;45117;50.960;5.500;2022-10-31T11:08:24;17.50;;;8.38;;
59338;SDS011;45117;50.960;5.500;2022-10-31T11:10:58;22.85;;;10.57;;
59338;SDS011;45117;50.960;5.500;2022-10-31T11:13:25;23.92;;;10.45;;
59338;SDS011;45117;50.960;5.500;2022-10-31T11:15:54;25.02;;;10.48;;
59338;SDS011;45117;50.960;5.500;2022-10-31T11:18:24;23.20;;;9.77;;
59338;SDS011;45117;50.960;5.500;2022-10-31T11:20:54;21.75;;;10.27;;
59338;SDS011;45117;50.960;5.500;2022-10-31T11:23:22;23.60;;;9.95;;
59338;SDS011;45117;50.960;5.500;2022-10-31T11:25:51;18.88;;;10.13;;
59338;SDS011;45117;50.960;5.500;2022-10-31T11:28:19;19.55;;;9.45;;
59338;SDS011;45117;50.960;5.500;2022-10-31T11:30:47;25.85;;;9.75;;
59338;SDS011;45117;50.960;5.500;2022-10-31T11:33:16;21.98;;;10.48;;
59338;SDS011;45117;50.960;5.500;2022-10-31T11:35:46;19.50;;;8.80;;
59338;SDS011;45117;50.960;5.500;2022-10-31T11:38:17;20.20;;;9.45;;
59338;SDS011;45117;50.960;5.500;2022-10-31T11:40:51;19.30;;;10.23;;
59338;SDS011;45117;50.960;5.500;2022-10-31T11:43:23;17.52;;;6.97;;
59338;SDS011;45117;50.960;5.500;2022-10-31T11:45:50;15.93;;;7.95;;
59338;SDS011;45117;50.960;5.500;2022-10-31T11:48:18;18.73;;;8.70;;
59338;SDS011;45117;50.960;5.500;2022-10-31T11:50:50;15.88;;;7.93;;
59338;SDS011;45117;50.960;5.500;2022-10-31T11:53:19;19.15;;;8.35;;
59338;SDS011;45117;50.960;5.500;2022-10-31T11:55:59;16.55;;;8.48;;
59338;SDS011;45117;50.960;5.500;2022-10-31T11:58:28;18.13;;;8.18;;
59338;SDS011;45117;50.960;5.500;2022-10-31T12:00:55;19.02;;;9.00;;
59338;SDS011;45117;50.960;5.500;2022-10-31T12:03:27;20.10;;;9.30;;
59338;SDS011;45117;50.960;5.500;2022-10-31T12:06:07;22.73;;;8.93;;
59338;SDS011;45117;50.960;5.500;2022-10-31T12:08:39;20.05;;;9.73;;
59338;SDS011;45117;50.960;5.500;2022-10-31T12:11:09;19.50;;;8.75;;
59338;SDS011;45117;50.960;5.500;2022-10-31T12:13:44;17.25;;;7.22;;
59338;SDS011;45117;50.960;5.500;2022-10-31T12:16:22;16.02;;;8.45;;
59338;SDS011;45117;50.960;5.500;2022-10-31T12:18:58;23.33;;;9.32;;
59338;SDS011;45117;50.960;5.500;2022-10-31T12:21:34;24.67;;;9.98;;
59338;SDS011;45117;50.960;5.500;2022-10-31T12:24:21;15.50;;;7.78;;
59338;SDS011;45117;50.960;5.500;2022-10-31T12:26:59;21.15;;;9.13;;
59338;SDS011;45117;50.960;5.500;2022-10-31T12:29:39;22.95;;;9.65;;
59338;SDS011;45117;50.960;5.500;2022-10-31T12:32:25;21.33;;;9.43;;
59338;SDS011;45117;50.960;5.500;2022-10-31T12:35:03;23.15;;;9.98;;
59338;SDS011;45117;50.960;5.500;2022-10-31T12:37:48;19.92;;;8.57;;
59338;SDS011;45117;50.960;5.500;2022-10-31T12:40:30;27.67;;;10.70;;
59338;SDS011;45117;50.960;5.500;2022-10-31T12:43:09;21.73;;;9.48;;
59338;SDS011;45117;50.960;5.500;2022-10-31T12:45:50;20.52;;;8.88;;
59338;SDS011;45117;50.960;5.500;2022-10-31T12:48:37;26.67;;;11.88;;
59338;SDS011;45117;50.960;5.500;2022-10-31T12:51:22;24.55;;;10.88;;
59338;SDS011;45117;50.960;5.500;2022-10-31T12:54:02;23.10;;;10.75;;
59338;SDS011;45117;50.960;5.500;2022-10-31T12:56:41;24.60;;;10.40;;
59338;SDS011;45117;50.960;5.500;2022-10-31T12:59:19;27.02;;;11.95;;
59338;SDS011;45117;50.960;5.500;2022-10-31T13:01:53;28.85;;;12.68;;
59338;SDS011;45117;50.960;5.500;2022-10-31T13:04:29;24.27;;;10.90;;
59338;SDS011;45117;50.960;5.500;2022-10-31T13:07:03;22.00;;;10.30;;
59338;SDS011;45117;50.960;5.500;2022-10-31T13:09:35;29.25;;;13.00;;
59338;SDS011;45117;50.960;5.500;2022-10-31T13:12:08;25.05;;;12.63;;
59338;SDS011;45117;50.960;5.500;2022-10-31T13:14:38;27.98;;;12.45;;
59338;SDS011;45117;50.960;5.500;2022-10-31T13:17:08;26.92;;;12.52;;
59338;SDS011;45117;50.960;5.500;2022-10-31T13:19:43;29.13;;;12.82;;
59338;SDS011;45117;50.960;5.500;2022-10-31T13:22:12;29.48;;;12.10;;
59338;SDS011;45117;50.960;5.500;2022-10-31T13:24:43;24.63;;;10.75;;
59338;SDS011;45117;50.960;5.500;2022-10-31T13:27:15;21.08;;;9.85;;
59338;SDS011;45117;50.960;5.500;2022-10-31T13:29:54;29.95;;;13.05;;
59338;SDS011;45117;50.960;5.500;2022-10-31T13:32:27;20.70;;;10.32;;
59338;SDS011;45117;50.960;5.500;2022-10-31T13:35:03;26.95;;;12.38;;
59338;SDS011;45117;50.960;5.500;2022-10-31T13:37:36;30.10;;;12.48;;
59338;SDS011;45117;50.960;5.500;2022-10-31T13:40:12;23.20;;;11.98;;
59338;SDS011;45117;50.960;5.500;2022-10-31T13:42:48;18.95;;;8.77;;
59338;SDS011;45117;50.960;5.500;2022-10-31T13:45:21;26.50;;;11.68;;
59338;SDS011;45117;50.960;5.500;2022-10-31T13:47:55;24.88;;;11.18;;
59338;SDS011;45117;50.960;5.500;2022-10-31T13:50:24;28.15;;;10.57;;
59338;SDS011;45117;50.960;5.500;2022-10-31T13:52:51;26.95;;;11.75;;
59338;SDS011;45117;50.960;5.500;2022-10-31T13:55:35;28.95;;;12.27;;
59338;SDS011;45117;50.960;5.500;2022-10-31T13:58:17;20.88;;;9.23;;
59338;SDS011;45117;50.960;5.500;2022-10-31T14:00:57;22.13;;;10.07;;
59338;SDS011;45117;50.960;5.500;2022-10-31T14:03:25;22.67;;;10.77;;
59338;SDS011;45117;50.960;5.500;2022-10-31T14:05:53;22.58;;;9.07;;
59338;SDS011;45117;50.960;5.500;2022-10-31T14:08:22;19.35;;;9.13;;
59338;SDS011;45117;50.960;5.500;2022-10-31T14:10:50;19.00;;;8.85;;
59338;SDS011;45117;50.960;5.500;2022-10-31T14:13:21;16.73;;;7.85;;
59338;SDS011;45117;50.960;5.500;2022-10-31T14:15:53;23.40;;;10.23;;
59338;SDS011;45117;50.960;5.500;2022-10-31T14:18:22;18.25;;;9.40;;
59338;SDS011;45117;50.960;5.500;2022-10-31T14:20:50;17.27;;;9.52;;
59338;SDS011;45117;50.960;5.500;2022-10-31T14:26:18;19.83;;;9.05;;
59338;SDS011;45117;50.960;5.500;2022-10-31T14:28:58;21.40;;;8.52;;
59338;SDS011;45117;50.960;5.500;2022-10-31T14:31:34;16.42;;;8.50;;
59338;SDS011;45117;50.960;5.500;2022-10-31T14:34:04;25.77;;;10.07;;
59338;SDS011;45117;50.960;5.500;2022-10-31T14:36:47;22.50;;;9.35;;
59338;SDS011;45117;50.960;5.500;2022-10-31T14:39:22;17.38;;;7.97;;
59338;SDS011;45117;50.960;5.500;2022-10-31T14:41:57;15.68;;;7.05;;
59338;SDS011;45117;50.960;5.500;2022-10-31T14:47:31;16.90;;;7.68;;